Terminal Aerodrome Forecast
Issued by NWS Green Bay, WI

Home | Current Version | Previous Version | Graphics & Text | Print | Product List | Glossary On
Versions: 1 2 3 4 5 6 7 8 9 10 11 12 13 14 15 16 17 18 19 20 21 22 23 24 25 26 27 28 29 30 31 32 33 34 35
730
FTUS43 KGRB 232340
TAFGRB
TAF
KGRB 232340Z 2400/2424 13007KT P6SM SCT050 BKN100
      TEMPO 2400/2403 4SM -SHRA BKN050
     FM240300 15005KT P6SM BKN060
     FM240500 16006KT P6SM SCT025 OVC040 WS020/21035KT
     FM240900 19007KT 5SM -SHRA BR OVC025 WS020/21035KT
     FM241500 22010G18KT 6SM HZ SCT025 BKN050
     FM242000 26010G18KT P6SM SCT050=

USA.gov is the U.S. government's official web portal to all federal, state and local government web resources and services.